createdAt,value
2022-09-07T11:30:28.681Z,0.00
2022-09-07T11:31:28.773Z,268.00
2022-09-07T11:32:28.655Z,234.00
2022-09-07T11:33:28.677Z,188.00
2022-09-07T11:36:29.191Z,352.00
2022-09-07T11:37:29.205Z,118.00
2022-09-07T11:38:29.296Z,91.00
2022-09-07T11:39:29.290Z,99.00
2022-09-07T11:40:29.187Z,100.00
2022-09-07T11:41:29.171Z,130.00
2022-09-07T11:42:44.581Z,135.00
2022-09-07T11:43:29.184Z,113.00
2022-09-07T11:45:09.090Z,139.00
2022-09-07T12:36:45.650Z,0.00
2022-09-07T12:37:45.591Z,2.00
2022-09-07T12:38:45.604Z,3.00
2022-09-07T12:39:45.663Z,3.00
2022-09-07T12:40:45.624Z,3.00
2022-09-07T12:41:47.286Z,3.00
2022-09-07T12:42:45.686Z,3.00
2022-09-07T12:43:45.701Z,6.00
2022-09-07T12:44:45.731Z,3.00
2022-09-07T12:45:45.729Z,4.00
2022-09-07T12:46:46.762Z,4.00
2022-09-07T12:47:45.731Z,1.00
2022-09-07T12:48:45.726Z,0.00
2022-09-07T12:49:45.735Z,3.00
2022-09-07T12:50:45.883Z,3.00
2022-09-07T12:52:09.125Z,1.00
2022-09-07T12:52:45.901Z,4.00
2022-09-07T12:53:45.976Z,0.00
2022-09-07T12:54:45.966Z,1.00
2022-09-07T12:56:46.407Z,3.00
2022-09-07T12:57:46.139Z,5.00
2022-09-07T12:58:46.131Z,53.00
2022-09-07T12:59:46.621Z,0.00
2022-09-07T13:00:46.174Z,5.00
2022-09-07T13:01:46.278Z,1.00
2022-09-07T13:02:46.232Z,0.00
2022-09-07T13:03:49.796Z,0.00
2022-09-07T13:04:46.189Z,0.00
2022-09-07T13:05:46.459Z,0.00
2022-09-07T13:07:02.271Z,0.00
2022-09-07T13:07:46.247Z,0.00
2022-09-07T13:08:46.266Z,0.00
2022-09-07T13:09:46.247Z,0.00
2022-09-07T13:10:47.111Z,0.00
2022-09-07T13:11:46.274Z,0.00
2022-09-07T13:12:53.964Z,0.00
2022-09-07T13:14:03.898Z,0.00
2022-09-07T13:14:46.319Z,0.00
2022-09-07T13:15:46.398Z,0.00
2022-09-07T13:17:46.353Z,0.00
2022-09-07T13:18:46.362Z,0.00
2022-09-07T13:19:46.373Z,0.00
2022-09-07T13:20:46.385Z,0.00
2022-09-07T13:21:46.388Z,0.00
2022-09-07T13:22:46.415Z,0.00
2022-09-07T13:23:46.427Z,0.00
2022-09-07T13:24:47.269Z,0.00
2022-09-07T13:25:46.463Z,0.00
2022-09-07T13:26:51.021Z,0.00
2022-09-07T13:27:46.475Z,0.00
2022-09-07T13:28:47.498Z,0.00
2022-09-07T13:29:46.501Z,0.00
2022-09-07T13:30:46.583Z,0.00
2022-09-07T13:31:46.538Z,0.00
2022-09-07T13:33:46.580Z,0.00
2022-09-07T13:34:46.586Z,0.00
2022-09-07T13:35:46.616Z,0.00
2022-09-07T13:36:46.613Z,0.00
2022-09-07T13:37:46.626Z,0.00
2022-09-07T13:38:46.638Z,0.00
2022-09-07T13:39:46.685Z,0.00
2022-09-07T13:40:46.668Z,0.00
2022-09-07T13:41:46.639Z,1.00
2022-09-07T13:42:46.631Z,26.00
2022-09-07T13:43:46.658Z,4.00
2022-09-07T13:44:46.762Z,1.00
2022-09-07T13:45:47.063Z,5.00
2022-09-07T13:46:46.960Z,0.00
2022-09-07T13:47:46.998Z,0.00
2022-09-07T13:48:47.036Z,0.00
2022-09-07T13:49:47.100Z,0.00
2022-09-07T13:50:47.172Z,0.00
2022-09-07T13:51:47.232Z,0.00
2022-09-07T13:52:47.298Z,0.00
2022-09-07T13:53:47.360Z,0.00
2022-09-07T13:54:47.511Z,0.00
